sensor_id;sensor_type;location;lat;lon;timestamp;P1;durP1;ratioP1;P2;durP2;ratioP2
16662;SDS011;8445;51.270;9.434;2022-10-22T00:01:31;43.65;;;30.63;;
16662;SDS011;8445;51.270;9.434;2022-10-22T00:03:58;52.20;;;33.15;;
16662;SDS011;8445;51.270;9.434;2022-10-22T00:06:24;49.58;;;31.50;;
16662;SDS011;8445;51.270;9.434;2022-10-22T00:08:51;49.65;;;31.42;;
16662;SDS011;8445;51.270;9.434;2022-10-22T00:11:18;43.10;;;31.13;;
16662;SDS011;8445;51.270;9.434;2022-10-22T00:13:44;45.30;;;31.10;;
16662;SDS011;8445;51.270;9.434;2022-10-22T00:16:11;43.45;;;29.88;;
16662;SDS011;8445;51.270;9.434;2022-10-22T00:18:37;44.92;;;31.08;;
16662;SDS011;8445;51.270;9.434;2022-10-22T00:21:04;50.85;;;31.08;;
16662;SDS011;8445;51.270;9.434;2022-10-22T00:23:31;49.45;;;31.60;;
16662;SDS011;8445;51.270;9.434;2022-10-22T00:25:57;50.20;;;32.00;;
16662;SDS011;8445;51.270;9.434;2022-10-22T00:28:23;45.95;;;31.25;;
16662;SDS011;8445;51.270;9.434;2022-10-22T00:30:56;53.67;;;32.35;;
16662;SDS011;8445;51.270;9.434;2022-10-22T00:33:24;62.47;;;33.42;;
16662;SDS011;8445;51.270;9.434;2022-10-22T00:35:52;51.75;;;32.28;;
16662;SDS011;8445;51.270;9.434;2022-10-22T00:38:19;60.60;;;32.92;;
16662;SDS011;8445;51.270;9.434;2022-10-22T00:40:45;53.45;;;33.45;;
16662;SDS011;8445;51.270;9.434;2022-10-22T00:43:12;52.03;;;32.67;;
16662;SDS011;8445;51.270;9.434;2022-10-22T00:45:42;61.22;;;34.00;;
16662;SDS011;8445;51.270;9.434;2022-10-22T00:48:09;61.88;;;34.30;;
16662;SDS011;8445;51.270;9.434;2022-10-22T00:50:47;56.63;;;33.00;;
16662;SDS011;8445;51.270;9.434;2022-10-22T00:53:20;64.13;;;33.92;;
16662;SDS011;8445;51.270;9.434;2022-10-22T00:56:10;59.33;;;33.97;;
16662;SDS011;8445;51.270;9.434;2022-10-22T00:58:38;67.95;;;35.33;;
16662;SDS011;8445;51.270;9.434;2022-10-22T01:01:12;65.00;;;35.63;;
16662;SDS011;8445;51.270;9.434;2022-10-22T01:03:45;70.10;;;36.25;;
16662;SDS011;8445;51.270;9.434;2022-10-22T01:06:14;61.78;;;34.85;;
16662;SDS011;8445;51.270;9.434;2022-10-22T01:09:10;65.97;;;35.15;;
16662;SDS011;8445;51.270;9.434;2022-10-22T01:14:42;74.20;;;36.38;;
16662;SDS011;8445;51.270;9.434;2022-10-22T01:18:01;66.28;;;34.85;;
16662;SDS011;8445;51.270;9.434;2022-10-22T01:20:55;78.72;;;37.72;;
16662;SDS011;8445;51.270;9.434;2022-10-22T01:23:58;77.15;;;37.45;;
16662;SDS011;8445;51.270;9.434;2022-10-22T01:29:40;64.38;;;34.83;;
16662;SDS011;8445;51.270;9.434;2022-10-22T01:32:22;68.57;;;35.63;;
16662;SDS011;8445;51.270;9.434;2022-10-22T01:34:52;58.80;;;35.72;;
16662;SDS011;8445;51.270;9.434;2022-10-22T01:37:25;58.88;;;33.72;;
16662;SDS011;8445;51.270;9.434;2022-10-22T01:39:57;53.95;;;32.80;;
16662;SDS011;8445;51.270;9.434;2022-10-22T01:42:25;53.80;;;31.52;;
16662;SDS011;8445;51.270;9.434;2022-10-22T01:44:52;54.42;;;32.40;;
16662;SDS011;8445;51.270;9.434;2022-10-22T01:50:40;50.20;;;31.67;;
16662;SDS011;8445;51.270;9.434;2022-10-22T01:59:08;54.38;;;31.17;;
16662;SDS011;8445;51.270;9.434;2022-10-22T02:02:11;49.38;;;31.05;;
16662;SDS011;8445;51.270;9.434;2022-10-22T02:05:00;56.22;;;29.38;;
16662;SDS011;8445;51.270;9.434;2022-10-22T02:07:54;50.53;;;29.20;;
16662;SDS011;8445;51.270;9.434;2022-10-22T02:10:28;51.00;;;29.83;;
16662;SDS011;8445;51.270;9.434;2022-10-22T02:12:56;50.85;;;31.25;;
16662;SDS011;8445;51.270;9.434;2022-10-22T02:15:25;49.55;;;30.05;;
16662;SDS011;8445;51.270;9.434;2022-10-22T02:17:54;50.80;;;29.35;;
16662;SDS011;8445;51.270;9.434;2022-10-22T02:20:25;52.28;;;30.05;;
16662;SDS011;8445;51.270;9.434;2022-10-22T02:22:55;57.05;;;30.73;;
16662;SDS011;8445;51.270;9.434;2022-10-22T02:25:24;69.25;;;32.60;;
16662;SDS011;8445;51.270;9.434;2022-10-22T02:28:01;61.72;;;32.15;;
16662;SDS011;8445;51.270;9.434;2022-10-22T02:30:54;63.47;;;33.65;;
16662;SDS011;8445;51.270;9.434;2022-10-22T02:33:33;71.28;;;34.40;;
16662;SDS011;8445;51.270;9.434;2022-10-22T02:36:08;70.03;;;34.13;;
16662;SDS011;8445;51.270;9.434;2022-10-22T02:38:35;67.03;;;33.03;;
16662;SDS011;8445;51.270;9.434;2022-10-22T02:41:03;71.82;;;34.72;;
16662;SDS011;8445;51.270;9.434;2022-10-22T02:43:29;83.53;;;37.08;;
16662;SDS011;8445;51.270;9.434;2022-10-22T02:46:05;80.47;;;36.08;;
16662;SDS011;8445;51.270;9.434;2022-10-22T02:48:31;89.88;;;37.80;;
16662;SDS011;8445;51.270;9.434;2022-10-22T02:50:57;84.60;;;36.60;;
16662;SDS011;8445;51.270;9.434;2022-10-22T02:53:23;86.10;;;36.53;;
16662;SDS011;8445;51.270;9.434;2022-10-22T02:55:49;87.32;;;37.20;;
16662;SDS011;8445;51.270;9.434;2022-10-22T02:58:14;82.35;;;36.40;;
16662;SDS011;8445;51.270;9.434;2022-10-22T03:00:40;81.72;;;34.08;;
16662;SDS011;8445;51.270;9.434;2022-10-22T03:03:06;75.82;;;33.78;;
16662;SDS011;8445;51.270;9.434;2022-10-22T03:05:32;71.43;;;33.72;;
16662;SDS011;8445;51.270;9.434;2022-10-22T03:07:58;75.22;;;35.08;;
16662;SDS011;8445;51.270;9.434;2022-10-22T03:10:24;79.60;;;34.85;;
16662;SDS011;8445;51.270;9.434;2022-10-22T03:12:50;84.57;;;36.50;;
16662;SDS011;8445;51.270;9.434;2022-10-22T03:15:15;71.75;;;34.63;;
16662;SDS011;8445;51.270;9.434;2022-10-22T03:17:41;83.32;;;36.50;;
16662;SDS011;8445;51.270;9.434;2022-10-22T03:20:07;87.43;;;35.53;;
16662;SDS011;8445;51.270;9.434;2022-10-22T03:22:33;84.13;;;36.25;;
16662;SDS011;8445;51.270;9.434;2022-10-22T03:25:04;81.93;;;38.40;;
16662;SDS011;8445;51.270;9.434;2022-10-22T03:27:46;84.72;;;36.80;;
16662;SDS011;8445;51.270;9.434;2022-10-22T03:30:14;71.68;;;34.40;;
16662;SDS011;8445;51.270;9.434;2022-10-22T03:32:39;69.10;;;35.03;;
16662;SDS011;8445;51.270;9.434;2022-10-22T03:35:05;74.40;;;33.83;;
16662;SDS011;8445;51.270;9.434;2022-10-22T03:37:32;67.45;;;33.72;;
16662;SDS011;8445;51.270;9.434;2022-10-22T03:39:59;68.22;;;34.58;;
16662;SDS011;8445;51.270;9.434;2022-10-22T03:42:27;62.75;;;30.40;;
16662;SDS011;8445;51.270;9.434;2022-10-22T03:44:53;62.17;;;32.55;;
16662;SDS011;8445;51.270;9.434;2022-10-22T03:47:19;60.90;;;30.40;;
16662;SDS011;8445;51.270;9.434;2022-10-22T03:49:48;61.20;;;31.13;;
16662;SDS011;8445;51.270;9.434;2022-10-22T03:52:16;57.00;;;30.63;;
16662;SDS011;8445;51.270;9.434;2022-10-22T03:54:42;61.17;;;30.85;;
16662;SDS011;8445;51.270;9.434;2022-10-22T03:57:09;58.90;;;31.80;;
16662;SDS011;8445;51.270;9.434;2022-10-22T03:59:36;53.08;;;30.02;;
16662;SDS011;8445;51.270;9.434;2022-10-22T04:02:08;51.97;;;30.35;;
16662;SDS011;8445;51.270;9.434;2022-10-22T04:04:35;50.85;;;29.20;;
16662;SDS011;8445;51.270;9.434;2022-10-22T04:07:02;57.45;;;30.08;;
16662;SDS011;8445;51.270;9.434;2022-10-22T04:09:30;54.17;;;29.17;;
16662;SDS011;8445;51.270;9.434;2022-10-22T04:11:57;54.47;;;29.30;;
16662;SDS011;8445;51.270;9.434;2022-10-22T04:14:24;56.42;;;29.52;;
16662;SDS011;8445;51.270;9.434;2022-10-22T04:16:50;54.08;;;30.02;;
16662;SDS011;8445;51.270;9.434;2022-10-22T04:19:16;57.33;;;29.35;;
16662;SDS011;8445;51.270;9.434;2022-10-22T04:21:42;64.95;;;31.52;;
16662;SDS011;8445;51.270;9.434;2022-10-22T04:24:09;52.88;;;30.63;;
16662;SDS011;8445;51.270;9.434;2022-10-22T04:26:35;58.47;;;31.75;;
16662;SDS011;8445;51.270;9.434;2022-10-22T04:29:01;58.30;;;30.20;;
16662;SDS011;8445;51.270;9.434;2022-10-22T04:31:27;57.00;;;30.77;;
16662;SDS011;8445;51.270;9.434;2022-10-22T04:33:53;55.40;;;28.65;;
16662;SDS011;8445;51.270;9.434;2022-10-22T04:36:21;56.78;;;29.42;;
16662;SDS011;8445;51.270;9.434;2022-10-22T04:38:52;50.40;;;27.73;;
16662;SDS011;8445;51.270;9.434;2022-10-22T04:41:27;56.05;;;27.98;;
16662;SDS011;8445;51.270;9.434;2022-10-22T04:43:59;52.80;;;28.00;;
16662;SDS011;8445;51.270;9.434;2022-10-22T04:46:26;58.90;;;28.40;;
16662;SDS011;8445;51.270;9.434;2022-10-22T04:48:54;52.22;;;27.17;;
16662;SDS011;8445;51.270;9.434;2022-10-22T04:51:24;50.13;;;27.90;;
16662;SDS011;8445;51.270;9.434;2022-10-22T04:53:51;51.30;;;27.25;;
16662;SDS011;8445;51.270;9.434;2022-10-22T04:56:20;54.97;;;26.90;;
16662;SDS011;8445;51.270;9.434;2022-10-22T04:58:59;44.70;;;25.48;;
16662;SDS011;8445;51.270;9.434;2022-10-22T05:01:32;49.20;;;25.95;;
16662;SDS011;8445;51.270;9.434;2022-10-22T05:04:02;56.85;;;28.27;;
16662;SDS011;8445;51.270;9.434;2022-10-22T05:06:30;55.08;;;27.27;;
16662;SDS011;8445;51.270;9.434;2022-10-22T05:08:59;63.17;;;28.02;;
16662;SDS011;8445;51.270;9.434;2022-10-22T05:11:33;60.28;;;29.38;;
16662;SDS011;8445;51.270;9.434;2022-10-22T05:14:03;55.28;;;27.80;;
16662;SDS011;8445;51.270;9.434;2022-10-22T05:16:30;61.33;;;29.33;;
16662;SDS011;8445;51.270;9.434;2022-10-22T05:18:58;59.22;;;28.23;;
16662;SDS011;8445;51.270;9.434;2022-10-22T05:21:26;63.22;;;28.65;;
16662;SDS011;8445;51.270;9.434;2022-10-22T05:23:53;62.50;;;29.17;;
16662;SDS011;8445;51.270;9.434;2022-10-22T05:26:21;71.07;;;30.20;;
16662;SDS011;8445;51.270;9.434;2022-10-22T05:28:49;76.55;;;30.25;;
16662;SDS011;8445;51.270;9.434;2022-10-22T05:31:15;75.47;;;30.30;;
16662;SDS011;8445;51.270;9.434;2022-10-22T05:33:43;79.07;;;32.25;;
16662;SDS011;8445;51.270;9.434;2022-10-22T05:36:18;71.88;;;30.73;;
16662;SDS011;8445;51.270;9.434;2022-10-22T05:38:46;69.90;;;31.25;;
16662;SDS011;8445;51.270;9.434;2022-10-22T05:41:16;80.03;;;34.15;;
16662;SDS011;8445;51.270;9.434;2022-10-22T05:43:47;77.18;;;30.85;;
16662;SDS011;8445;51.270;9.434;2022-10-22T05:46:17;83.00;;;32.97;;
16662;SDS011;8445;51.270;9.434;2022-10-22T05:48:53;70.03;;;31.77;;
16662;SDS011;8445;51.270;9.434;2022-10-22T05:51:25;67.85;;;31.88;;
16662;SDS011;8445;51.270;9.434;2022-10-22T05:53:56;74.60;;;32.03;;
16662;SDS011;8445;51.270;9.434;2022-10-22T05:56:25;85.13;;;32.75;;
16662;SDS011;8445;51.270;9.434;2022-10-22T05:58:53;90.38;;;32.70;;
16662;SDS011;8445;51.270;9.434;2022-10-22T06:01:24;85.13;;;36.38;;
16662;SDS011;8445;51.270;9.434;2022-10-22T06:04:00;97.22;;;35.90;;
16662;SDS011;8445;51.270;9.434;2022-10-22T06:06:30;99.88;;;37.25;;
16662;SDS011;8445;51.270;9.434;2022-10-22T06:11:53;90.93;;;39.08;;
16662;SDS011;8445;51.270;9.434;2022-10-22T06:14:20;91.35;;;37.40;;
16662;SDS011;8445;51.270;9.434;2022-10-22T06:16:47;93.13;;;36.88;;
16662;SDS011;8445;51.270;9.434;2022-10-22T06:19:15;96.82;;;37.28;;
16662;SDS011;8445;51.270;9.434;2022-10-22T06:21:43;101.03;;;37.22;;
16662;SDS011;8445;51.270;9.434;2022-10-22T06:24:10;108.68;;;39.95;;
16662;SDS011;8445;51.270;9.434;2022-10-22T06:26:37;100.80;;;39.78;;
16662;SDS011;8445;51.270;9.434;2022-10-22T06:29:05;89.75;;;36.75;;
16662;SDS011;8445;51.270;9.434;2022-10-22T06:31:31;85.18;;;36.42;;
16662;SDS011;8445;51.270;9.434;2022-10-22T06:34:01;85.75;;;34.85;;
16662;SDS011;8445;51.270;9.434;2022-10-22T06:36:34;82.00;;;35.90;;
16662;SDS011;8445;51.270;9.434;2022-10-22T06:39:00;76.95;;;34.38;;
16662;SDS011;8445;51.270;9.434;2022-10-22T06:41:27;80.90;;;34.30;;
16662;SDS011;8445;51.270;9.434;2022-10-22T06:43:53;69.95;;;31.10;;
16662;SDS011;8445;51.270;9.434;2022-10-22T06:46:21;64.78;;;30.85;;
16662;SDS011;8445;51.270;9.434;2022-10-22T06:48:49;52.92;;;28.13;;
16662;SDS011;8445;51.270;9.434;2022-10-22T06:51:22;57.58;;;28.30;;
16662;SDS011;8445;51.270;9.434;2022-10-22T06:53:49;48.70;;;26.92;;
16662;SDS011;8445;51.270;9.434;2022-10-22T06:56:16;43.10;;;25.63;;
16662;SDS011;8445;51.270;9.434;2022-10-22T06:58:52;41.63;;;25.25;;
16662;SDS011;8445;51.270;9.434;2022-10-22T07:01:21;37.67;;;22.75;;
16662;SDS011;8445;51.270;9.434;2022-10-22T07:03:52;41.13;;;22.48;;
16662;SDS011;8445;51.270;9.434;2022-10-22T07:06:18;28.10;;;20.38;;
16662;SDS011;8445;51.270;9.434;2022-10-22T07:08:46;32.22;;;18.70;;
16662;SDS011;8445;51.270;9.434;2022-10-22T07:13:44;24.20;;;14.82;;
16662;SDS011;8445;51.270;9.434;2022-10-22T07:16:14;17.75;;;13.80;;
16662;SDS011;8445;51.270;9.434;2022-10-22T07:18:42;17.13;;;11.35;;
16662;SDS011;8445;51.270;9.434;2022-10-22T07:21:09;16.50;;;9.90;;
16662;SDS011;8445;51.270;9.434;2022-10-22T07:23:37;10.75;;;8.15;;
16662;SDS011;8445;51.270;9.434;2022-10-22T07:26:03;9.38;;;7.32;;
16662;SDS011;8445;51.270;9.434;2022-10-22T07:28:31;6.50;;;5.90;;
16662;SDS011;8445;51.270;9.434;2022-10-22T07:31:03;8.18;;;6.97;;
16662;SDS011;8445;51.270;9.434;2022-10-22T07:33:31;14.80;;;7.03;;
16662;SDS011;8445;51.270;9.434;2022-10-22T07:35:57;13.95;;;5.95;;
16662;SDS011;8445;51.270;9.434;2022-10-22T07:38:25;9.52;;;5.78;;
16662;SDS011;8445;51.270;9.434;2022-10-22T07:40:52;7.80;;;5.72;;
16662;SDS011;8445;51.270;9.434;2022-10-22T07:43:21;8.27;;;5.45;;
16662;SDS011;8445;51.270;9.434;2022-10-22T07:45:48;6.18;;;5.28;;
16662;SDS011;8445;51.270;9.434;2022-10-22T07:48:15;9.00;;;5.30;;
16662;SDS011;8445;51.270;9.434;2022-10-22T07:50:42;12.85;;;6.15;;
16662;SDS011;8445;51.270;9.434;2022-10-22T07:53:08;7.82;;;5.00;;
16662;SDS011;8445;51.270;9.434;2022-10-22T07:55:34;7.63;;;5.50;;
16662;SDS011;8445;51.270;9.434;2022-10-22T07:58:00;9.63;;;5.00;;
16662;SDS011;8445;51.270;9.434;2022-10-22T08:00:26;17.48;;;5.93;;
16662;SDS011;8445;51.270;9.434;2022-10-22T08:02:52;6.43;;;4.88;;
16662;SDS011;8445;51.270;9.434;2022-10-22T08:05:18;6.22;;;4.95;;
16662;SDS011;8445;51.270;9.434;2022-10-22T08:07:44;8.75;;;5.03;;
16662;SDS011;8445;51.270;9.434;2022-10-22T08:10:10;6.97;;;5.57;;
16662;SDS011;8445;51.270;9.434;2022-10-22T08:12:40;9.27;;;4.68;;
16662;SDS011;8445;51.270;9.434;2022-10-22T08:15:06;6.05;;;5.45;;
16662;SDS011;8445;51.270;9.434;2022-10-22T08:17:33;6.75;;;5.30;;
16662;SDS011;8445;51.270;9.434;2022-10-22T08:19:58;6.72;;;4.70;;
16662;SDS011;8445;51.270;9.434;2022-10-22T08:22:24;9.60;;;5.35;;
16662;SDS011;8445;51.270;9.434;2022-10-22T08:24:50;7.65;;;4.93;;
16662;SDS011;8445;51.270;9.434;2022-10-22T08:27:17;7.88;;;4.60;;
16662;SDS011;8445;51.270;9.434;2022-10-22T08:29:43;8.00;;;4.70;;
16662;SDS011;8445;51.270;9.434;2022-10-22T08:32:09;5.15;;;4.10;;
16662;SDS011;8445;51.270;9.434;2022-10-22T08:34:38;8.82;;;5.57;;
16662;SDS011;8445;51.270;9.434;2022-10-22T08:37:04;7.55;;;5.00;;
16662;SDS011;8445;51.270;9.434;2022-10-22T08:39:32;5.32;;;4.60;;
16662;SDS011;8445;51.270;9.434;2022-10-22T08:47:59;6.10;;;4.47;;
16662;SDS011;8445;51.270;9.434;2022-10-22T08:50:57;6.35;;;5.00;;
16662;SDS011;8445;51.270;9.434;2022-10-22T08:53:29;9.32;;;4.30;;
16662;SDS011;8445;51.270;9.434;2022-10-22T08:56:16;5.90;;;4.43;;
16662;SDS011;8445;51.270;9.434;2022-10-22T08:58:45;7.15;;;4.22;;
16662;SDS011;8445;51.270;9.434;2022-10-22T09:01:21;8.27;;;3.75;;
16662;SDS011;8445;51.270;9.434;2022-10-22T09:06:50;5.47;;;4.53;;
16662;SDS011;8445;51.270;9.434;2022-10-22T09:09:19;5.85;;;4.20;;
16662;SDS011;8445;51.270;9.434;2022-10-22T09:11:49;8.32;;;4.53;;
16662;SDS011;8445;51.270;9.434;2022-10-22T09:14:20;6.18;;;4.15;;
16662;SDS011;8445;51.270;9.434;2022-10-22T09:19:59;4.55;;;4.03;;
16662;SDS011;8445;51.270;9.434;2022-10-22T09:25:53;7.40;;;4.05;;
16662;SDS011;8445;51.270;9.434;2022-10-22T09:28:21;9.25;;;4.50;;
16662;SDS011;8445;51.270;9.434;2022-10-22T09:30:48;12.07;;;4.47;;
16662;SDS011;8445;51.270;9.434;2022-10-22T09:33:24;7.47;;;4.05;;
16662;SDS011;8445;51.270;9.434;2022-10-22T09:35:56;11.63;;;4.30;;
16662;SDS011;8445;51.270;9.434;2022-10-22T09:38:37;6.30;;;4.05;;
16662;SDS011;8445;51.270;9.434;2022-10-22T09:41:09;6.15;;;4.22;;
16662;SDS011;8445;51.270;9.434;2022-10-22T09:43:36;8.00;;;3.88;;
16662;SDS011;8445;51.270;9.434;2022-10-22T09:46:03;8.73;;;4.20;;
16662;SDS011;8445;51.270;9.434;2022-10-22T09:48:35;8.18;;;4.15;;
16662;SDS011;8445;51.270;9.434;2022-10-22T09:51:09;9.45;;;3.92;;
16662;SDS011;8445;51.270;9.434;2022-10-22T09:53:44;9.15;;;4.10;;
16662;SDS011;8445;51.270;9.434;2022-10-22T09:56:24;13.38;;;3.85;;
16662;SDS011;8445;51.270;9.434;2022-10-22T09:59:03;7.25;;;4.40;;
16662;SDS011;8445;51.270;9.434;2022-10-22T10:01:31;11.40;;;4.53;;
16662;SDS011;8445;51.270;9.434;2022-10-22T10:04:10;9.13;;;4.10;;
16662;SDS011;8445;51.270;9.434;2022-10-22T10:06:39;7.53;;;4.38;;
16662;SDS011;8445;51.270;9.434;2022-10-22T10:09:14;6.38;;;3.85;;
16662;SDS011;8445;51.270;9.434;2022-10-22T10:20:26;7.10;;;2.65;;
16662;SDS011;8445;51.270;9.434;2022-10-22T10:23:02;8.00;;;2.63;;
16662;SDS011;8445;51.270;9.434;2022-10-22T10:35:15;5.35;;;2.40;;
16662;SDS011;8445;51.270;9.434;2022-10-22T10:40:27;6.90;;;2.20;;
16662;SDS011;8445;51.270;9.434;2022-10-22T10:43:18;7.25;;;2.30;;
16662;SDS011;8445;51.270;9.434;2022-10-22T10:46:10;6.50;;;2.20;;
16662;SDS011;8445;51.270;9.434;2022-10-22T10:49:00;6.47;;;2.10;;
16662;SDS011;8445;51.270;9.434;2022-10-22T10:51:52;5.85;;;2.08;;
16662;SDS011;8445;51.270;9.434;2022-10-22T10:58:01;4.50;;;2.60;;
16662;SDS011;8445;51.270;9.434;2022-10-22T11:00:31;6.03;;;2.05;;
16662;SDS011;8445;51.270;9.434;2022-10-22T11:06:11;7.32;;;2.03;;
16662;SDS011;8445;51.270;9.434;2022-10-22T11:08:44;5.95;;;1.80;;
16662;SDS011;8445;51.270;9.434;2022-10-22T11:11:35;8.95;;;1.98;;
16662;SDS011;8445;51.270;9.434;2022-10-22T11:14:25;5.78;;;1.80;;
16662;SDS011;8445;51.270;9.434;2022-10-22T11:17:03;10.55;;;2.13;;
16662;SDS011;8445;51.270;9.434;2022-10-22T11:19:44;7.47;;;2.03;;
16662;SDS011;8445;51.270;9.434;2022-10-22T11:22:25;5.00;;;1.80;;
16662;SDS011;8445;51.270;9.434;2022-10-22T11:25:05;8.38;;;2.20;;
16662;SDS011;8445;51.270;9.434;2022-10-22T11:28:13;9.48;;;2.10;;
16662;SDS011;8445;51.270;9.434;2022-10-22T11:31:01;9.40;;;1.70;;
16662;SDS011;8445;51.270;9.434;2022-10-22T11:33:44;6.00;;;2.10;;
16662;SDS011;8445;51.270;9.434;2022-10-22T11:36:21;7.88;;;1.88;;
16662;SDS011;8445;51.270;9.434;2022-10-22T11:38:53;6.00;;;1.88;;
16662;SDS011;8445;51.270;9.434;2022-10-22T11:41:23;6.80;;;1.90;;
16662;SDS011;8445;51.270;9.434;2022-10-22T11:43:57;4.82;;;2.10;;
16662;SDS011;8445;51.270;9.434;2022-10-22T11:49:53;4.78;;;2.00;;
16662;SDS011;8445;51.270;9.434;2022-10-22T11:52:26;10.38;;;2.20;;
16662;SDS011;8445;51.270;9.434;2022-10-22T11:55:27;5.68;;;2.20;;
16662;SDS011;8445;51.270;9.434;2022-10-22T12:00:57;6.65;;;1.73;;
16662;SDS011;8445;51.270;9.434;2022-10-22T12:03:38;4.05;;;1.77;;
16662;SDS011;8445;51.270;9.434;2022-10-22T12:11:37;7.57;;;2.10;;
16662;SDS011;8445;51.270;9.434;2022-10-22T12:14:18;4.10;;;1.83;;
16662;SDS011;8445;51.270;9.434;2022-10-22T12:17:13;6.05;;;1.90;;
16662;SDS011;8445;51.270;9.434;2022-10-22T12:19:41;4.70;;;1.80;;
16662;SDS011;8445;51.270;9.434;2022-10-22T12:22:17;6.40;;;2.25;;
16662;SDS011;8445;51.270;9.434;2022-10-22T12:25:24;7.28;;;1.98;;
16662;SDS011;8445;51.270;9.434;2022-10-22T12:27:55;4.55;;;1.60;;
16662;SDS011;8445;51.270;9.434;2022-10-22T12:30:32;5.82;;;2.30;;
16662;SDS011;8445;51.270;9.434;2022-10-22T12:32:59;4.00;;;1.90;;
16662;SDS011;8445;51.270;9.434;2022-10-22T12:35:32;7.70;;;1.90;;
16662;SDS011;8445;51.270;9.434;2022-10-22T12:38:14;8.75;;;1.90;;
16662;SDS011;8445;51.270;9.434;2022-10-22T12:40:47;3.75;;;1.70;;
16662;SDS011;8445;51.270;9.434;2022-10-22T12:43:16;9.82;;;1.90;;
16662;SDS011;8445;51.270;9.434;2022-10-22T12:45:55;5.35;;;1.23;;
16662;SDS011;8445;51.270;9.434;2022-10-22T12:48:24;5.05;;;1.70;;
16662;SDS011;8445;51.270;9.434;2022-10-22T12:50:59;6.13;;;1.77;;
16662;SDS011;8445;51.270;9.434;2022-10-22T12:53:47;3.22;;;1.70;;
16662;SDS011;8445;51.270;9.434;2022-10-22T12:56:21;6.60;;;3.15;;
16662;SDS011;8445;51.270;9.434;2022-10-22T13:02:04;4.50;;;1.63;;
16662;SDS011;8445;51.270;9.434;2022-10-22T13:08:11;6.65;;;1.73;;
16662;SDS011;8445;51.270;9.434;2022-10-22T13:10:48;3.90;;;1.60;;
16662;SDS011;8445;51.270;9.434;2022-10-22T13:13:32;7.10;;;1.63;;
16662;SDS011;8445;51.270;9.434;2022-10-22T13:16:21;7.72;;;1.75;;
16662;SDS011;8445;51.270;9.434;2022-10-22T13:18:52;3.53;;;1.48;;
16662;SDS011;8445;51.270;9.434;2022-10-22T13:21:31;5.15;;;1.52;;
16662;SDS011;8445;51.270;9.434;2022-10-22T13:24:03;9.07;;;5.35;;
16662;SDS011;8445;51.270;9.434;2022-10-22T13:26:47;5.75;;;2.42;;
16662;SDS011;8445;51.270;9.434;2022-10-22T13:29:17;7.03;;;1.73;;
16662;SDS011;8445;51.270;9.434;2022-10-22T13:31:48;4.63;;;1.63;;
16662;SDS011;8445;51.270;9.434;2022-10-22T13:34:20;3.90;;;1.40;;
16662;SDS011;8445;51.270;9.434;2022-10-22T13:36:49;3.90;;;1.35;;
16662;SDS011;8445;51.270;9.434;2022-10-22T13:39:17;3.22;;;1.02;;
16662;SDS011;8445;51.270;9.434;2022-10-22T13:41:44;5.25;;;1.35;;
16662;SDS011;8445;51.270;9.434;2022-10-22T13:44:10;1.77;;;0.98;;
16662;SDS011;8445;51.270;9.434;2022-10-22T13:46:36;5.03;;;1.70;;
16662;SDS011;8445;51.270;9.434;2022-10-22T13:49:06;2.17;;;1.15;;
16662;SDS011;8445;51.270;9.434;2022-10-22T13:51:41;5.55;;;1.45;;
16662;SDS011;8445;51.270;9.434;2022-10-22T13:54:09;3.03;;;1.42;;
16662;SDS011;8445;51.270;9.434;2022-10-22T13:56:42;4.38;;;1.42;;
16662;SDS011;8445;51.270;9.434;2022-10-22T13:59:08;4.72;;;1.40;;
16662;SDS011;8445;51.270;9.434;2022-10-22T14:01:35;5.53;;;1.35;;
16662;SDS011;8445;51.270;9.434;2022-10-22T14:04:02;8.57;;;1.50;;
16662;SDS011;8445;51.270;9.434;2022-10-22T14:06:32;5.68;;;1.95;;
16662;SDS011;8445;51.270;9.434;2022-10-22T14:08:59;8.85;;;2.00;;
16662;SDS011;8445;51.270;9.434;2022-10-22T14:11:29;7.65;;;2.13;;
16662;SDS011;8445;51.270;9.434;2022-10-22T14:13:57;8.02;;;2.08;;
16662;SDS011;8445;51.270;9.434;2022-10-22T14:16:24;6.97;;;1.92;;
16662;SDS011;8445;51.270;9.434;2022-10-22T14:18:52;4.45;;;1.52;;
16662;SDS011;8445;51.270;9.434;2022-10-22T14:21:20;4.55;;;2.10;;
16662;SDS011;8445;51.270;9.434;2022-10-22T14:23:46;4.55;;;1.92;;
16662;SDS011;8445;51.270;9.434;2022-10-22T14:26:29;5.32;;;1.92;;
16662;SDS011;8445;51.270;9.434;2022-10-22T14:28:58;6.15;;;2.20;;
16662;SDS011;8445;51.270;9.434;2022-10-22T14:31:25;5.38;;;2.10;;
16662;SDS011;8445;51.270;9.434;2022-10-22T14:33:51;6.68;;;1.60;;
16662;SDS011;8445;51.270;9.434;2022-10-22T14:36:18;5.72;;;3.40;;
16662;SDS011;8445;51.270;9.434;2022-10-22T14:38:44;6.55;;;1.77;;
16662;SDS011;8445;51.270;9.434;2022-10-22T14:41:16;2.90;;;1.42;;
16662;SDS011;8445;51.270;9.434;2022-10-22T14:43:48;2.35;;;1.23;;
16662;SDS011;8445;51.270;9.434;2022-10-22T14:46:15;5.13;;;1.85;;
16662;SDS011;8445;51.270;9.434;2022-10-22T14:48:43;5.00;;;1.42;;
16662;SDS011;8445;51.270;9.434;2022-10-22T14:51:13;7.18;;;1.90;;
16662;SDS011;8445;51.270;9.434;2022-10-22T14:53:42;3.67;;;1.50;;
16662;SDS011;8445;51.270;9.434;2022-10-22T14:56:12;4.90;;;1.63;;
16662;SDS011;8445;51.270;9.434;2022-10-22T14:58:42;8.52;;;2.08;;
16662;SDS011;8445;51.270;9.434;2022-10-22T15:01:09;5.55;;;1.67;;
16662;SDS011;8445;51.270;9.434;2022-10-22T15:03:35;7.05;;;1.50;;
16662;SDS011;8445;51.270;9.434;2022-10-22T15:06:01;9.75;;;1.70;;
16662;SDS011;8445;51.270;9.434;2022-10-22T15:08:28;4.82;;;1.65;;
16662;SDS011;8445;51.270;9.434;2022-10-22T15:10:59;4.57;;;1.50;;
16662;SDS011;8445;51.270;9.434;2022-10-22T15:13:27;5.80;;;1.75;;
16662;SDS011;8445;51.270;9.434;2022-10-22T15:15:53;2.00;;;1.30;;
16662;SDS011;8445;51.270;9.434;2022-10-22T15:18:21;2.80;;;1.65;;
16662;SDS011;8445;51.270;9.434;2022-10-22T15:21:01;5.40;;;1.63;;
16662;SDS011;8445;51.270;9.434;2022-10-22T15:23:38;3.13;;;1.48;;
16662;SDS011;8445;51.270;9.434;2022-10-22T15:26:08;4.53;;;1.50;;
16662;SDS011;8445;51.270;9.434;2022-10-22T15:28:36;2.95;;;1.60;;
16662;SDS011;8445;51.270;9.434;2022-10-22T15:31:03;4.13;;;1.20;;
16662;SDS011;8445;51.270;9.434;2022-10-22T15:33:30;6.07;;;1.35;;
16662;SDS011;8445;51.270;9.434;2022-10-22T15:35:57;6.53;;;1.55;;
16662;SDS011;8445;51.270;9.434;2022-10-22T15:38:27;5.00;;;1.73;;
16662;SDS011;8445;51.270;9.434;2022-10-22T15:41:00;4.45;;;1.52;;
16662;SDS011;8445;51.270;9.434;2022-10-22T15:43:27;1.92;;;1.40;;
16662;SDS011;8445;51.270;9.434;2022-10-22T15:46:03;5.55;;;1.70;;
16662;SDS011;8445;51.270;9.434;2022-10-22T15:48:39;3.00;;;1.60;;
16662;SDS011;8445;51.270;9.434;2022-10-22T15:51:06;5.93;;;2.25;;
16662;SDS011;8445;51.270;9.434;2022-10-22T15:53:38;6.90;;;2.08;;
16662;SDS011;8445;51.270;9.434;2022-10-22T15:56:04;7.07;;;1.63;;
16662;SDS011;8445;51.270;9.434;2022-10-22T15:58:31;5.13;;;1.70;;
16662;SDS011;8445;51.270;9.434;2022-10-22T16:01:03;12.05;;;1.75;;
16662;SDS011;8445;51.270;9.434;2022-10-22T16:03:32;5.47;;;2.10;;
16662;SDS011;8445;51.270;9.434;2022-10-22T16:05:58;3.35;;;1.40;;
16662;SDS011;8445;51.270;9.434;2022-10-22T16:08:24;8.45;;;2.00;;
16662;SDS011;8445;51.270;9.434;2022-10-22T16:10:51;6.72;;;2.10;;
16662;SDS011;8445;51.270;9.434;2022-10-22T16:13:18;5.43;;;1.42;;
16662;SDS011;8445;51.270;9.434;2022-10-22T16:15:49;4.47;;;1.88;;
16662;SDS011;8445;51.270;9.434;2022-10-22T16:18:16;5.05;;;2.08;;
16662;SDS011;8445;51.270;9.434;2022-10-22T16:20:42;5.45;;;1.67;;
16662;SDS011;8445;51.270;9.434;2022-10-22T16:23:08;2.40;;;1.65;;
16662;SDS011;8445;51.270;9.434;2022-10-22T16:25:38;10.25;;;2.35;;
16662;SDS011;8445;51.270;9.434;2022-10-22T16:28:05;5.50;;;2.20;;
16662;SDS011;8445;51.270;9.434;2022-10-22T16:30:32;6.85;;;1.90;;
16662;SDS011;8445;51.270;9.434;2022-10-22T16:33:00;9.00;;;2.38;;
16662;SDS011;8445;51.270;9.434;2022-10-22T16:35:28;7.07;;;2.10;;